Naytahwaush, Minnesota
Current Conditions -  °F | °C
As of 4:55 AM on Friday 21 Nov 2014 (Local Time) from K3N8 Reporting Station
Overcast Overcast  
Wind Chill: -2°   Ceiling: 8500
Heat Index: 13°   Visibility: 10mi
Dew Point:   Wind: 14mph
Humidity: 74%   Direction: 170°S
Pressure: 29.95"   Gusts: 18mph
Location:  47.26°N, 95.63°W
Report Text: K3N8 211055Z AUTO 17012G16KT 10SM OVC085 M10/M14 A2995 RMK AO2 T11041142
Loading
Personal Weather Stations






























Interactive Weather Map New forecast layout! Learn more

10-Day Weather Forecast

Advertisements
Track Severe Weather on mobile